Lewiston, MI (49756)

12:18 PM EDT on September 04, 2015 (GMT -0400)
Moon Lake | | Change Station
CLOSE
Current Station
Personal Weather Station
Location: Lewiston, MI
Elevation: 1240 ft
Nearby Weather Stations

Elev 1240 ft 44.84 °N, 84.26 °W | Updated 8 minutes ago

Overcast
Overcast
68.6 °F
Feels Like 68.6 °F
N
0.0
Wind Variable Wind from ENE
Gusts 0.0 mph

Today
High -- | Low -- °F
--% Chance of Precip.
Yesterday
High -- | Low -- °F
Precip. -- in
7:02 AM 8:08 PM
Waning Gibbous, 58% visible
Pressure 30.07 in
Visibility 5.0 miles
Clouds Overcast 800 ft
Dew Point 67 °F
Humidity 94%
Rainfall 0.00 in
Snow Depth Not available.
UV 2 out of 12
Pollen 9.70 out of 12
Air Quality Not available.
Flu Activity Not available.
METAR KGOV 041618Z AUTO 09006KT 5SM BR OVC008 21/20 A3007 RMK AO2 T02060195
Pressure 30.07 in
Visibility 5.0 miles
Clouds Overcast 800 ft
Dew Point 67 °F
Humidity 94%
Rainfall 0.00 in
Snow Depth Not available.
UV 2 out of 12
Pollen 9.70 out of 12
Air Quality Not available.
Flu Activity Not available.
METAR KGOV 041618Z AUTO 09006KT 5SM BR OVC008 21/20 A3007 RMK AO2 T02060195
Nowcast | as of 12:00 PM EDT on September 4, 2015

At 1 PM...mostly cloudy. Chance of showers. Temperature 71. East winds 8 mph. At 3 PM...numerous showers and chance of thunderstorms. Temperature 72. East winds 10 mph. At 5 PM...mostly cloudy. Scattered showers and chance of thunderstorms. Temperature 71. East winds 12 mph. At 7 PM...mostly cloudy. Scattered showers and chance of thunderstorms. Temperature 69. East winds 9 mph.

×

10-Day Weather Forecast

×

Almanac

Astronomy

Sep. 04, 2015 Rise Set
Actual Time
Civil Twilight
Nautical Twilight
Astronomical Twilight
Moon
Length of Visible Light
Length of Day
Tomorrow will be .
, % of the Moon is Illuminated

Today's Extremes

State Highs State Lows

Community

WunderPhotos

Upload Photos

1,852,215 photos uploaded!

WunderBlogs® & News

Nearby

Air Quality

  Air Quality AQ Index Pollutant
Not available.

Snow Depth

Station Depth Elevation

Earthquake Activity

City Distance Mag. Time & Date
Minimum magnitude displayed is 2.5.

Coastal Water Temperatures

Place Temperature

Stations

Nearby Weather Stations

Station Location Temp. Windchill Dew Point Humidity Wind Precip. Elev Updated Type